Time;durP1;ratioP1;P1;durP2;ratioP2;P2;SDS_P1;SDS_P2;PMS_P1;PMS_P2;Temp;Humidity;BMP_temperature;BMP_pressure;BME280_temperature;BME280_humidity;BME280_pressure;Samples;Min_cycle;Max_cycle;Signal;HPM_P1;HPM_P2
2022/07/04 00:08:10;;;;;;;7.18;1.40;;;;;;;20.98;76.52;100546.69;20909439;28;20053;-70
2022/07/04 00:18:12;;;;;;;5.05;1.60;;;;;;;20.81;78.16;100555.66;20909327;28;20048;-69
2022/07/04 00:28:13;;;;;;;3.10;1.35;;;;;;;20.72;79.35;100550.84;20909220;28;20041;-69
2022/07/04 00:38:15;;;;;;;4.60;1.35;;;;;;;20.64;80.35;100566.34;20907185;28;20067;-69
2022/07/04 00:48:18;;;;;;;6.03;1.45;;;;;;;20.48;81.24;100569.00;20906827;28;20041;-69
2022/07/04 00:58:21;;;;;;;3.05;1.20;;;;;;;20.32;81.93;100576.91;20904383;28;20112;-69
2022/07/04 01:08:23;;;;;;;6.03;1.40;;;;;;;20.28;79.62;100585.13;20904597;28;20071;-69
2022/07/04 01:18:31;;;;;;;4.00;1.20;;;;;;;20.14;78.49;100581.41;20904090;28;20087;-68
2022/07/04 01:28:32;;;;;;;5.72;1.23;;;;;;;20.07;78.13;100585.31;20902910;28;20056;-69
2022/07/04 01:38:34;;;;;;;4.82;1.33;;;;;;;19.84;81.56;100585.66;20902142;28;20119;-69
2022/07/04 01:48:35;;;;;;;2.92;1.25;;;;;;;19.70;85.59;100587.22;20901920;28;20060;-69
2022/07/04 01:58:37;;;;;;;3.25;1.35;;;;;;;19.65;86.89;100604.31;20901214;28;20060;-69
2022/07/04 02:18:58;;;;;;;3.95;1.55;;;;;;;19.62;85.70;100621.25;20900276;28;20045;-69
2022/07/04 02:29:00;;;;;;;2.95;1.40;;;;;;;19.43;85.54;100617.75;20899122;28;20427;-69
2022/07/04 02:39:02;;;;;;;7.20;1.50;;;;;;;19.21;85.75;100623.25;20898911;28;20045;-69
2022/07/04 02:49:04;;;;;;;5.07;1.33;;;;;;;19.00;89.48;100622.47;20900138;28;20102;-68
2022/07/04 02:59:05;;;;;;;5.18;1.70;;;;;;;18.66;95.12;100629.31;20898899;28;20056;-69
2022/07/04 03:09:07;;;;;;;2.63;1.30;;;;;;;18.68;95.57;100639.84;20897894;28;20048;-69
2022/07/04 03:19:08;;;;;;;3.63;1.38;;;;;;;18.46;99.41;100647.91;20899076;28;20474;-69
2022/07/04 03:29:10;;;;;;;4.43;1.80;;;;;;;18.38;100.00;100642.09;20912062;28;20049;-68
2022/07/04 03:39:11;;;;;;;5.05;1.60;;;;;;;18.35;100.00;100653.69;20912156;28;20515;-70
2022/07/04 03:49:13;;;;;;;6.40;1.85;;;;;;;18.33;100.00;100655.53;20911530;28;20732;-69
2022/07/04 03:59:14;;;;;;;9.70;3.80;;;;;;;18.62;100.00;100664.84;20909849;28;20045;-68
2022/07/04 04:09:18;;;;;;;4.22;1.95;;;;;;;18.56;100.00;100665.13;20909067;28;20052;-68
2022/07/04 04:19:20;;;;;;;4.75;2.15;;;;;;;18.64;100.00;100678.06;20908368;28;20045;-68
2022/07/04 04:29:21;;;;;;;4.05;1.70;;;;;;;18.75;100.00;100694.38;20905554;28;20053;-68
2022/07/04 04:39:23;;;;;;;6.40;2.22;;;;;;;20.21;93.79;100705.09;20905972;28;20037;-69
2022/07/04 04:49:24;;;;;;;4.88;1.67;;;;;;;21.58;75.92;100716.50;20906639;28;20051;-69
2022/07/04 04:59:29;;;;;;;4.80;1.30;;;;;;;21.19;70.16;100720.41;20905865;28;20136;-68
2022/07/04 05:09:30;;;;;;;4.15;1.60;;;;;;;19.94;76.90;100735.72;20904496;28;20055;-69
2022/07/04 05:19:32;;;;;;;6.80;1.40;;;;;;;19.69;78.15;100739.59;20904445;28;20056;-68
2022/07/04 05:29:33;;;;;;;4.72;1.50;;;;;;;19.66;78.43;100750.34;20903462;28;20052;-69
2022/07/04 05:39:35;;;;;;;4.22;1.42;;;;;;;19.89;74.94;100754.56;20902965;28;20478;-69
2022/07/04 05:49:36;;;;;;;3.72;1.20;;;;;;;19.86;76.04;100751.19;20902864;28;20049;-69
2022/07/04 05:59:38;;;;;;;5.05;1.58;;;;;;;19.95;76.43;100740.09;20902105;28;20638;-69
2022/07/04 06:09:39;;;;;;;7.00;1.52;;;;;;;19.80;76.79;100735.56;20900336;28;20041;-67
2022/07/04 06:19:41;;;;;;;5.90;1.63;;;;;;;19.69;79.77;100746.66;20900536;28;20041;-68
2022/07/04 06:29:42;;;;;;;5.25;1.92;;;;;;;19.92;76.23;100741.09;20898792;28;20057;-68
2022/07/04 06:39:44;;;;;;;6.07;1.77;;;;;;;20.14;75.85;100730.28;20899238;28;20063;-68
2022/07/04 06:49:45;;;;;;;5.05;1.73;;;;;;;20.15;74.70;100734.66;20898592;28;20489;-68
2022/07/04 06:59:47;;;;;;;6.97;2.10;;;;;;;20.47;74.72;100722.41;20945813;28;20048;-68
2022/07/04 07:09:49;;;;;;;5.35;1.95;;;;;;;20.46;73.10;100712.69;20949956;28;20037;-68
2022/07/04 07:19:50;;;;;;;4.38;1.63;;;;;;;20.70;72.40;100710.59;20943662;28;20060;-69
2022/07/04 07:29:52;;;;;;;3.83;1.58;;;;;;;20.74;71.90;100725.47;20942658;28;20489;-68
2022/07/04 07:39:54;;;;;;;6.35;1.60;;;;;;;21.27;69.75;100708.38;20943273;28;20044;-69
2022/07/04 07:49:56;;;;;;;5.13;1.85;;;;;;;21.32;68.13;100715.25;20929800;28;20517;-69
2022/07/04 07:59:57;;;;;;;5.43;2.10;;;;;;;21.35;68.91;100704.44;20902978;28;20055;-68
2022/07/04 08:09:59;;;;;;;3.70;1.52;;;;;;;21.70;72.01;100699.78;20905720;28;20056;-68
2022/07/04 08:20:02;;;;;;;4.22;2.00;;;;;;;21.75;68.95;100698.59;20983468;28;20447;-68
2022/07/04 08:30:05;;;;;;;6.43;2.00;;;;;;;22.42;61.57;100695.59;20982684;28;20106;-69
2022/07/04 08:40:08;;;;;;;4.63;1.70;;;;;;;22.38;64.01;100680.75;20982187;28;20122;-69
2022/07/04 08:50:20;;;;;;;5.05;1.90;;;;;;;22.52;62.63;100675.44;20981493;28;20048;-68
2022/07/04 09:00:22;;;;;;;4.75;1.92;;;;;;;22.95;63.18;100660.31;20979982;28;20049;-69
2022/07/04 09:10:24;;;;;;;4.10;1.70;;;;;;;23.51;55.81;100644.22;20970682;28;20505;-69
2022/07/04 09:20:27;;;;;;;8.10;1.80;;;;;;;23.29;55.54;100653.66;20895697;28;20140;-67
2022/07/04 09:30:29;;;;;;;4.18;1.73;;;;;;;23.08;56.56;100660.38;20895002;28;20045;-68
2022/07/04 09:40:32;;;;;;;4.93;1.70;;;;;;;23.10;54.51;100654.94;20894792;28;20041;-67
2022/07/04 09:50:34;;;;;;;6.17;1.60;;;;;;;23.44;55.59;100657.16;20894332;28;20067;-68
2022/07/04 10:00:41;;;;;;;4.97;1.45;;;;;;;24.06;52.46;100660.16;20894060;28;20041;-69
2022/07/04 10:10:44;;;;;;;3.88;1.65;;;;;;;23.72;50.35;100668.75;20905289;28;20093;-70
2022/07/04 10:20:48;;;;;;;3.60;1.50;;;;;;;24.99;46.94;100666.19;20975663;28;20055;-67
2022/07/04 10:30:53;;;;;;;3.35;1.35;;;;;;;25.49;46.40;100652.81;20980177;28;20508;-67
2022/07/04 10:41:02;;;;;;;1.85;1.25;;;;;;;25.20;45.49;100658.47;20992692;28;20044;-68
2022/07/04 10:51:06;;;;;;;5.15;1.42;;;;;;;24.67;48.50;100643.50;20991557;28;20413;-67
2022/07/04 11:01:16;;;;;;;6.47;1.60;;;;;;;24.83;47.57;100628.94;20990241;28;20064;-68
2022/07/04 11:11:57;;;;;;;3.00;1.23;;;;;;;24.85;51.32;100630.63;20974336;28;20137;-68
2022/07/04 11:21:59;;;;;;;5.22;1.20;;;;;;;26.30;41.38;100611.75;20809945;28;20045;-68
2022/07/04 11:32:05;;;;;;;3.20;1.13;;;;;;;25.66;42.64;100604.09;20904833;28;20053;-68
2022/07/04 11:52:29;;;;;;;4.80;1.40;;;;;;;25.09;43.65;100591.38;20903808;28;20049;-68
2022/07/04 12:02:51;;;;;;;;;;;;;;;25.58;42.49;100587.72;20902896;28;20114;-67
2022/07/04 12:12:56;;;;;;;5.78;1.52;;;;;;;25.63;43.13;100576.66;20930507;28;19983;-68
2022/07/04 12:23:00;;;;;;;3.63;1.63;;;;;;;25.97;41.81;100573.16;20983035;28;20401;-67
2022/07/04 12:33:08;;;;;;;4.25;1.30;;;;;;;26.10;42.49;100554.25;20982777;28;20060;-68
2022/07/04 12:43:09;;;;;;;2.50;1.30;;;;;;;25.94;43.13;100540.34;20981991;28;20712;-68
2022/07/04 12:53:11;;;;;;;4.20;1.25;;;;;;;26.25;43.91;100519.97;20980450;28;20053;-68
2022/07/04 13:03:12;;;;;;;2.63;1.05;;;;;;;26.70;40.74;100517.31;20979583;28;20055;-68
2022/07/04 13:13:14;;;;;;;3.67;1.20;;;;;;;26.88;38.79;100498.81;20946178;28;20547;-68
2022/07/04 13:23:16;;;;;;;3.85;1.13;;;;;;;26.85;40.74;100498.09;20896476;28;20412;-69
2022/07/04 13:33:20;;;;;;;3.85;1.25;;;;;;;26.99;40.66;100486.22;20893980;28;20132;-67
2022/07/04 13:43:23;;;;;;;3.58;1.10;;;;;;;26.74;40.01;100473.09;20894089;28;20044;-68
2022/07/04 13:53:25;;;;;;;2.53;1.10;;;;;;;26.77;40.94;100465.63;20894247;28;20044;-68
2022/07/04 14:03:26;;;;;;;2.40;0.93;;;;;;;26.56;39.24;100456.66;20893286;28;20095;-68
2022/07/04 14:13:28;;;;;;;5.20;1.27;;;;;;;27.08;39.17;100447.84;20926970;28;20048;-68
2022/07/04 14:23:41;;;;;;;3.15;0.90;;;;;;;26.58;40.02;100443.94;20975516;28;20424;-68
2022/07/04 14:33:43;;;;;;;2.17;1.00;;;;;;;27.26;38.73;100436.50;20975734;28;20048;-68
2022/07/04 14:43:44;;;;;;;2.42;0.80;;;;;;;27.80;36.69;100433.63;20975527;28;20049;-69
2022/07/04 14:53:46;;;;;;;3.42;1.00;;;;;;;28.05;37.82;100418.88;20974933;28;20143;-68
2022/07/04 15:03:47;;;;;;;4.05;1.20;;;;;;;28.05;36.49;100413.47;20972700;28;20041;-68
2022/07/04 15:13:50;;;;;;;2.60;1.10;;;;;;;28.46;36.87;100408.09;20936594;28;20071;-68
2022/07/04 15:24:11;;;;;;;1.53;0.90;;;;;;;28.37;33.42;100399.88;20905182;28;20083;-68
2022/07/04 15:34:14;;;;;;;4.53;1.15;;;;;;;27.94;38.41;100391.22;20904392;28;20053;-68
2022/07/04 15:44:16;;;;;;;3.47;1.07;;;;;;;27.53;39.64;100388.44;20905143;28;20393;-68
2022/07/04 15:54:18;;;;;;;3.13;1.20;;;;;;;28.07;37.71;100381.88;20904273;28;20188;-68
2022/07/04 16:04:19;;;;;;;2.97;1.25;;;;;;;28.26;37.76;100382.94;20902773;28;20057;-68
2022/07/04 16:14:21;;;;;;;3.47;1.20;;;;;;;27.89;39.61;100386.22;20943120;28;20075;-67
2022/07/04 16:24:23;;;;;;;2.13;0.90;;;;;;;27.77;37.72;100374.69;20984460;28;20044;-68
2022/07/04 16:34:24;;;;;;;3.35;1.05;;;;;;;28.29;37.23;100370.03;20981616;28;20127;-68
2022/07/04 16:44:26;;;;;;;1.73;0.85;;;;;;;28.38;35.96;100366.56;20983057;28;20052;-68
2022/07/04 16:54:27;;;;;;;3.15;1.15;;;;;;;29.00;35.85;100366.31;20982595;28;20460;-68
2022/07/04 17:04:29;;;;;;;2.22;0.98;;;;;;;29.30;34.29;100360.72;20973984;28;20063;-68
2022/07/04 17:14:30;;;;;;;5.25;1.30;;;;;;;28.53;35.56;100367.00;20942267;28;20053;-68
2022/07/04 17:24:32;;;;;;;3.13;1.02;;;;;;;28.75;31.32;100367.72;20897697;28;20044;-74
2022/07/04 17:34:34;;;;;;;1.85;0.70;;;;;;;28.49;28.72;100356.63;20895030;28;20060;-72
2022/07/04 17:44:36;;;;;;;1.63;0.70;;;;;;;27.86;28.83;100373.88;20893080;28;20059;-74
2022/07/04 17:54:37;;;;;;;2.40;0.77;;;;;;;27.86;28.79;100373.03;20903829;28;20616;-72
2022/07/04 18:04:54;;;;;;;1.77;0.70;;;;;;;28.07;31.92;100381.88;20976268;28;20175;-74
2022/07/04 18:14:56;;;;;;;2.97;0.90;;;;;;;27.98;29.82;100387.22;20929976;28;20053;-71
2022/07/04 18:24:58;;;;;;;1.85;0.80;;;;;;;27.89;34.50;100394.31;20893651;28;20055;-70
2022/07/04 18:35:00;;;;;;;1.83;0.80;;;;;;;27.59;37.99;100408.56;20891591;28;20420;-71
2022/07/04 18:45:02;;;;;;;2.30;1.10;;;;;;;27.43;38.68;100408.19;20906496;28;20048;-70
2022/07/04 18:55:04;;;;;;;1.40;0.85;;;;;;;26.77;40.73;100429.84;20984129;28;20064;-70
2022/07/04 19:05:06;;;;;;;1.50;0.82;;;;;;;26.13;43.71;100437.78;20929366;28;20444;-73
2022/07/04 19:15:12;;;;;;;4.10;1.10;;;;;;;25.71;43.24;100435.66;20954263;28;20060;-69
2022/07/04 19:25:14;;;;;;;3.13;1.02;;;;;;;25.09;46.95;100438.66;20987593;28;20087;-70
2022/07/04 19:35:16;;;;;;;2.63;0.90;;;;;;;24.46;47.97;100437.94;20957727;28;20553;-70
2022/07/04 19:45:18;;;;;;;1.95;1.00;;;;;;;24.21;48.99;100459.41;20904634;28;20072;-70
2022/07/04 19:55:19;;;;;;;2.45;1.10;;;;;;;23.90;49.89;100469.59;20902407;28;20561;-70
2022/07/04 20:05:21;;;;;;;4.22;1.40;;;;;;;23.59;50.76;100484.22;20900191;28;20052;-72
2022/07/04 20:15:22;;;;;;;4.32;1.33;;;;;;;23.04;53.70;100483.44;20951052;28;20670;-70
2022/07/04 20:25:24;;;;;;;2.45;1.23;;;;;;;22.60;58.01;100496.13;20903671;28;20436;-69
2022/07/04 20:35:25;;;;;;;3.75;1.30;;;;;;;22.34;57.14;100503.13;20898241;28;20055;-70
2022/07/04 20:45:28;;;;;;;5.53;1.40;;;;;;;22.15;57.89;100504.28;20895958;28;20453;-69
2022/07/04 20:55:29;;;;;;;5.63;1.20;;;;;;;21.72;59.91;100514.88;20898310;28;20516;-69
2022/07/04 21:05:31;;;;;;;5.20;1.30;;;;;;;21.34;63.20;100537.59;20896223;28;20091;-69
2022/07/04 21:15:33;;;;;;;3.70;1.60;;;;;;;21.12;64.28;100538.78;20946600;28;20063;-69
2022/07/04 21:25:35;;;;;;;6.75;1.40;;;;;;;20.73;65.18;100550.75;20978984;28;20048;-68
2022/07/04 21:35:37;;;;;;;3.10;0.82;;;;;;;20.82;59.45;100551.19;20976075;28;20052;-69
2022/07/04 21:45:38;;;;;;;6.93;1.20;;;;;;;20.91;56.65;100548.00;20975932;28;20452;-70
2022/07/04 21:55:40;;;;;;;2.60;1.00;;;;;;;20.86;56.04;100555.41;20976964;28;20489;-69
2022/07/04 22:05:41;;;;;;;6.95;1.25;;;;;;;20.70;57.66;100569.56;20944121;28;20102;-70
2022/07/04 22:15:43;;;;;;;2.17;0.82;;;;;;;20.47;58.06;100583.25;20917921;28;20040;-69
2022/07/04 22:25:44;;;;;;;1.90;0.68;;;;;;;20.05;59.11;100592.50;20980195;28;20060;-69
2022/07/04 22:35:46;;;;;;;5.07;0.70;;;;;;;19.92;58.56;100599.41;20982277;28;20055;-70
2022/07/04 22:45:47;;;;;;;2.42;0.80;;;;;;;19.67;59.62;100595.31;20982599;28;20044;-69
2022/07/04 22:55:49;;;;;;;3.05;0.63;;;;;;;19.53;59.08;100613.72;20982521;28;20052;-69
2022/07/04 23:05:50;;;;;;;2.83;0.80;;;;;;;19.65;55.69;100606.97;20981433;28;20398;-69
2022/07/04 23:15:52;;;;;;;2.22;0.88;;;;;;;19.83;53.42;100608.69;20981366;28;20068;-68
2022/07/04 23:25:53;;;;;;;4.72;0.80;;;;;;;19.78;54.41;100626.66;20981423;28;20060;-68
2022/07/04 23:35:55;;;;;;;3.75;1.00;;;;;;;19.33;56.67;100629.78;20980689;28;20056;-69
2022/07/04 23:45:56;;;;;;;4.47;0.90;;;;;;;19.28;58.26;100632.66;20994953;28;20045;-68
2022/07/04 23:55:58;;;;;;;3.70;0.88;;;;;;;19.00;59.33;100637.53;20994378;28;20056;-68
